Time;durP1;ratioP1;P1;durP2;ratioP2;P2;SDS_P1;SDS_P2;PMS_P1;PMS_P2;Temp;Humidity;BMP_temperature;BMP_pressure;BME280_temperature;BME280_humidity;BME280_pressure;Samples;Min_cycle;Max_cycle;Signal;HPM_P1;HPM_P2
2022/11/26 00:02:29;;;;;;;130.73;39.40;;;;;;;6.24;100.00;101764.94;4967246;28;20026;-77
2022/11/26 00:04:57;;;;;;;156.82;41.35;;;;;;;6.23;100.00;101773.88;4961842;28;20042;-77
2022/11/26 00:07:26;;;;;;;220.35;43.85;;;;;;;6.21;100.00;101773.13;4965330;28;20531;-77
2022/11/26 00:09:56;;;;;;;155.60;42.25;;;;;;;6.21;100.00;101772.28;4961693;28;20427;-80
2022/11/26 00:12:35;;;;;;;291.70;48.85;;;;;;;6.16;100.00;101780.56;4965503;28;20494;-79
2022/11/26 00:15:16;;;;;;;152.38;40.33;;;;;;;6.20;100.00;101775.88;4967505;28;20043;-76
2022/11/26 00:17:42;;;;;;;268.63;50.92;;;;;;;6.17;100.00;101781.41;4976208;28;20039;-78
2022/11/26 00:20:07;;;;;;;173.73;43.45;;;;;;;6.13;100.00;101776.31;4978227;28;20034;-78
2022/11/26 00:22:42;;;;;;;412.75;59.85;;;;;;;6.04;100.00;101773.44;4965007;28;20520;-78
2022/11/26 00:25:32;;;;;;;113.73;36.53;;;;;;;6.05;100.00;101791.06;4970684;28;20035;-79
2022/11/26 00:27:58;;;;;;;232.18;46.03;;;;;;;6.03;100.00;101793.81;4969161;28;20105;-79
2022/11/26 00:30:26;;;;;;;309.23;53.08;;;;;;;6.03;100.00;101795.63;4967687;28;20455;-78
2022/11/26 00:32:53;;;;;;;152.32;36.20;;;;;;;5.99;100.00;101794.13;4968515;28;20034;-77
2022/11/26 00:35:19;;;;;;;198.02;41.42;;;;;;;6.03;100.00;101795.63;4964885;28;20089;-78
2022/11/26 00:37:46;;;;;;;100.68;33.45;;;;;;;6.00;100.00;101802.00;4964799;28;20035;-77
2022/11/26 00:40:26;;;;;;;168.40;38.53;;;;;;;5.97;100.00;101802.22;4972592;28;20045;-77
2022/11/26 00:42:52;;;;;;;198.18;39.25;;;;;;;5.92;100.00;101799.84;4984827;28;20035;-77
2022/11/26 00:45:21;;;;;;;278.63;43.42;;;;;;;5.92;100.00;101814.88;4972123;28;20119;-78
2022/11/26 00:47:47;;;;;;;89.43;27.30;;;;;;;5.86;100.00;101816.16;4983035;28;20039;-78
2022/11/26 00:50:18;;;;;;;164.93;35.78;;;;;;;5.87;100.00;101822.31;4973006;28;20026;-78
2022/11/26 00:52:46;;;;;;;114.40;32.10;;;;;;;5.88;100.00;101821.38;4978698;28;20037;-78
2022/11/26 00:55:36;;;;;;;70.15;27.63;;;;;;;5.90;100.00;101828.25;4968222;28;20541;-79
2022/11/26 00:58:02;;;;;;;144.45;34.40;;;;;;;5.84;100.00;101833.97;4965300;28;20062;-78
2022/11/26 01:00:30;;;;;;;123.57;30.52;;;;;;;5.79;100.00;101828.16;4966238;28;20042;-78
2022/11/26 01:02:56;;;;;;;205.57;33.55;;;;;;;5.80;100.00;101837.78;4965223;28;20314;-77
2022/11/26 01:05:24;;;;;;;80.50;26.38;;;;;;;5.76;100.00;101841.63;4967240;28;20026;-78
2022/11/26 01:07:51;;;;;;;156.15;33.10;;;;;;;5.72;100.00;101832.16;4964361;28;20098;-78
2022/11/26 01:10:17;;;;;;;128.40;30.92;;;;;;;5.77;100.00;101848.59;4967648;28;20125;-78
2022/11/26 01:12:42;;;;;;;65.43;23.75;;;;;;;5.77;100.00;101858.34;4961830;28;20130;-78
2022/11/26 01:15:08;;;;;;;124.03;31.60;;;;;;;5.72;100.00;101858.66;4968100;28;20050;-78
2022/11/26 01:17:33;;;;;;;70.07;23.13;;;;;;;5.74;100.00;101862.06;4965914;28;20265;-77
2022/11/26 01:19:59;;;;;;;81.87;25.13;;;;;;;5.71;100.00;101859.59;4965060;28;20038;-78
2022/11/26 01:22:24;;;;;;;130.93;31.37;;;;;;;5.67;100.00;101860.78;4966541;28;20452;-77
2022/11/26 01:24:49;;;;;;;103.97;30.97;;;;;;;5.71;100.00;101867.56;4962673;28;20043;-77
2022/11/26 01:27:17;;;;;;;245.00;39.80;;;;;;;5.64;100.00;101863.63;4981774;28;20073;-78
2022/11/26 01:29:43;;;;;;;195.75;38.45;;;;;;;5.69;100.00;101872.97;4961863;28;20091;-78
2022/11/26 01:32:09;;;;;;;294.13;44.90;;;;;;;5.65;100.00;101876.78;4967398;28;20076;-77
2022/11/26 01:34:34;;;;;;;;;;;;;;;5.65;100.00;101878.59;4964630;28;20046;-78
2022/11/26 01:37:00;;;;;;;104.28;26.88;;;;;;;5.60;100.00;101881.53;4967066;28;19918;-78
2022/11/26 01:39:25;;;;;;;151.35;27.77;;;;;;;5.53;100.00;101882.06;4966001;28;20117;-78
2022/11/26 01:42:04;;;;;;;177.20;33.70;;;;;;;5.57;100.00;101884.41;4962498;28;20186;-78
2022/11/26 01:44:32;;;;;;;121.07;28.17;;;;;;;5.48;100.00;101887.66;4965831;28;20045;-78
2022/11/26 01:46:58;;;;;;;78.70;25.25;;;;;;;5.50;100.00;101889.25;4957660;28;20046;-77
2022/11/26 01:49:33;;;;;;;111.50;26.30;;;;;;;5.55;100.00;101896.03;4962664;28;20431;-78
2022/11/26 01:52:15;;;;;;;169.50;32.90;;;;;;;5.43;100.00;101887.09;4939137;28;20035;-77
2022/11/26 01:54:42;;;;;;;103.03;27.35;;;;;;;5.48;100.00;101901.75;4962694;28;20047;-78
2022/11/26 01:57:16;;;;;;;175.27;29.67;;;;;;;5.48;100.00;101907.03;4967418;28;20061;-77
2022/11/26 01:59:45;;;;;;;79.60;24.50;;;;;;;5.45;100.00;101903.75;4977381;28;20448;-77
2022/11/26 02:02:11;;;;;;;103.05;25.05;;;;;;;5.41;100.00;101895.16;4966384;28;20071;-77
2022/11/26 02:04:41;;;;;;;77.67;23.53;;;;;;;5.40;100.00;101908.50;4944107;28;20024;-78
2022/11/26 02:07:06;;;;;;;64.22;21.33;;;;;;;5.34;100.00;101907.09;4962844;28;20038;-77
2022/11/26 02:09:32;;;;;;;72.47;22.97;;;;;;;5.38;100.00;101905.09;4962221;28;20105;-79
2022/11/26 02:11:58;;;;;;;140.23;27.90;;;;;;;5.34;100.00;101915.06;4965826;28;20031;-78
2022/11/26 02:14:27;;;;;;;96.63;23.75;;;;;;;5.28;100.00;101912.78;4965706;28;20160;-77
2022/11/26 02:17:23;;;;;;;69.57;21.95;;;;;;;5.33;100.00;101923.94;4962308;28;20027;-77
2022/11/26 02:20:02;;;;;;;119.05;25.55;;;;;;;5.30;100.00;101924.13;4961521;28;20050;-78
2022/11/26 02:22:49;;;;;;;104.57;24.65;;;;;;;5.25;100.00;101916.50;4962171;28;20736;-79
2022/11/26 02:25:22;;;;;;;172.50;25.67;;;;;;;5.26;100.00;101926.13;4975132;28;20034;-79
2022/11/26 02:28:11;;;;;;;160.13;29.63;;;;;;;5.26;100.00;101926.13;4962274;28;20055;-78
2022/11/26 02:30:42;;;;;;;46.33;16.65;;;;;;;5.27;100.00;101935.78;4952855;28;20066;-79
2022/11/26 02:33:20;;;;;;;46.72;17.80;;;;;;;5.27;100.00;101929.63;4966505;28;20483;-78
2022/11/26 02:35:48;;;;;;;88.30;23.35;;;;;;;5.26;100.00;101936.72;4963647;28;20042;-77
2022/11/26 02:38:29;;;;;;;99.65;21.75;;;;;;;5.30;100.00;101945.31;4966148;28;20027;-78
2022/11/26 02:40:55;;;;;;;82.35;19.38;;;;;;;5.25;100.00;101947.41;4962958;28;20042;-79
2022/11/26 02:43:22;;;;;;;90.60;20.38;;;;;;;5.26;100.00;101957.88;4962664;28;20109;-77
2022/11/26 02:46:03;;;;;;;107.00;21.65;;;;;;;5.25;100.00;101953.56;4960717;28;20039;-78
2022/11/26 02:48:32;;;;;;;125.38;21.20;;;;;;;5.22;100.00;101952.88;4967287;28;20039;-77
2022/11/26 02:51:02;;;;;;;108.90;20.73;;;;;;;5.26;100.00;101960.53;4959002;28;20467;-79
2022/11/26 02:53:31;;;;;;;211.00;28.95;;;;;;;5.19;100.00;101951.28;4965487;28;20027;-78
2022/11/26 02:56:04;;;;;;;215.02;27.08;;;;;;;5.24;100.00;101956.28;4950500;28;20073;-79
2022/11/26 02:58:31;;;;;;;94.13;21.00;;;;;;;5.26;100.00;101965.84;4954457;28;20119;-78
2022/11/26 03:00:58;;;;;;;82.82;21.15;;;;;;;5.34;100.00;101973.31;4982788;28;20019;-79
2022/11/26 03:03:31;;;;;;;86.88;20.35;;;;;;;5.33;100.00;101981.34;4966762;28;20432;-78
2022/11/26 03:06:11;;;;;;;115.68;20.88;;;;;;;5.20;100.00;101976.00;4961788;28;20506;-77
2022/11/26 03:08:37;;;;;;;117.90;21.85;;;;;;;5.22;100.00;101974.94;4967045;28;20035;-78
2022/11/26 03:11:03;;;;;;;93.68;21.02;;;;;;;5.24;100.00;101986.28;4965739;28;20315;-78
2022/11/26 03:13:29;;;;;;;248.95;30.25;;;;;;;5.18;100.00;101978.72;4961269;28;20159;-78
2022/11/26 03:15:54;;;;;;;305.40;35.15;;;;;;;5.17;100.00;101986.75;4960943;28;20504;-78
2022/11/26 03:18:20;;;;;;;136.40;25.87;;;;;;;5.10;100.00;101980.16;4962948;28;20042;-79
2022/11/26 03:20:45;;;;;;;197.37;27.03;;;;;;;5.18;100.00;101989.31;4981207;28;20073;-78
2022/11/26 03:23:10;;;;;;;92.40;20.73;;;;;;;5.20;100.00;101991.88;4971380;28;20089;-79
2022/11/26 03:25:36;;;;;;;72.90;19.30;;;;;;;5.24;100.00;101991.59;4948414;28;20042;-79
2022/11/26 03:28:01;;;;;;;177.80;25.43;;;;;;;5.24;100.00;101998.66;4980272;28;20046;-77
2022/11/26 03:30:27;;;;;;;80.57;17.83;;;;;;;5.28;100.00;102006.31;4975835;28;20043;-77
2022/11/26 03:32:52;;;;;;;180.90;24.00;;;;;;;5.21;100.00;102010.28;4961164;28;20031;-77
2022/11/26 03:35:18;;;;;;;229.40;24.30;;;;;;;5.19;100.00;102012.19;4965132;28;20060;-78
2022/11/26 03:37:44;;;;;;;76.68;17.63;;;;;;;5.24;100.00;102022.50;4961509;28;20274;-78
2022/11/26 03:40:09;;;;;;;101.47;18.88;;;;;;;5.22;100.00;102021.72;4966749;28;20066;-77
2022/11/26 03:42:35;;;;;;;74.32;16.48;;;;;;;5.18;100.00;102025.53;4963501;28;20146;-77
2022/11/26 03:45:01;;;;;;;66.68;17.98;;;;;;;5.22;100.00;102027.03;4966014;28;20050;-78
2022/11/26 03:47:26;;;;;;;202.65;23.38;;;;;;;5.17;100.00;102023.81;4961896;28;20058;-78
2022/11/26 03:49:52;;;;;;;81.55;17.88;;;;;;;5.11;100.00;102017.13;4961270;28;20511;-76
2022/11/26 03:52:17;;;;;;;90.32;17.17;;;;;;;5.15;100.00;102025.72;4966147;28;20557;-76
2022/11/26 03:54:43;;;;;;;127.97;18.02;;;;;;;5.04;100.00;102015.81;4960181;28;20126;-78
2022/11/26 03:57:08;;;;;;;55.47;15.40;;;;;;;5.13;100.00;102022.31;4966550;28;20054;-78
2022/11/26 03:59:34;;;;;;;255.43;28.17;;;;;;;5.05;100.00;102028.94;4947999;28;20105;-76
2022/11/26 04:01:59;;;;;;;47.83;12.57;;;;;;;5.08;100.00;102025.28;4966992;28;20277;-76
2022/11/26 04:04:24;;;;;;;77.57;15.90;;;;;;;5.11;100.00;102030.38;4964796;28;20034;-75
2022/11/26 04:06:50;;;;;;;182.38;20.55;;;;;;;5.07;100.00;102032.34;4961025;28;20030;-75
2022/11/26 04:09:15;;;;;;;55.87;15.10;;;;;;;5.08;100.00;102039.34;4958066;28;20053;-76
2022/11/26 04:11:41;;;;;;;225.60;24.53;;;;;;;5.16;100.00;102053.91;4959116;28;20034;-76
2022/11/26 04:14:06;;;;;;;76.57;14.87;;;;;;;5.16;100.00;102040.66;4966115;28;20424;-76
2022/11/26 04:16:31;;;;;;;168.43;23.20;;;;;;;5.15;100.00;102052.19;4963384;28;20369;-76
2022/11/26 04:18:57;;;;;;;64.93;14.87;;;;;;;5.22;100.00;102058.81;4966388;28;20121;-75
2022/11/26 04:21:22;;;;;;;49.63;14.50;;;;;;;5.28;100.00;102061.06;4954697;28;20050;-75
2022/11/26 04:23:47;;;;;;;53.73;15.97;;;;;;;5.29;100.00;102062.75;4961891;28;20484;-79
2022/11/26 04:26:13;;;;;;;105.27;16.23;;;;;;;5.28;100.00;102061.06;4965943;28;20053;-79
2022/11/26 04:28:39;;;;;;;96.90;16.42;;;;;;;5.28;100.00;102058.44;4959283;28;20035;-77
2022/11/26 04:31:04;;;;;;;75.38;16.05;;;;;;;5.31;100.00;102073.28;4965611;28;20047;-77
2022/11/26 04:33:29;;;;;;;132.68;20.98;;;;;;;5.29;100.00;102070.72;4963491;28;20066;-77
2022/11/26 04:35:55;;;;;;;163.00;23.07;;;;;;;5.23;100.00;102064.00;4961651;28;20167;-76
2022/11/26 04:38:20;;;;;;;129.23;19.23;;;;;;;5.25;100.00;102066.56;4953091;28;20046;-77
2022/11/26 04:40:47;;;;;;;207.85;22.90;;;;;;;5.22;100.00;102066.75;4965752;28;20341;-77
2022/11/26 04:43:12;;;;;;;70.97;16.77;;;;;;;5.26;100.00;102077.06;4970934;28;20109;-77
2022/11/26 04:45:38;;;;;;;85.40;15.77;;;;;;;5.29;100.00;102081.31;4966332;28;20523;-76
2022/11/26 04:48:04;;;;;;;58.93;15.13;;;;;;;5.28;100.00;102091.06;4970704;28;20460;-77
2022/11/26 04:50:30;;;;;;;177.05;22.45;;;;;;;5.23;100.00;102084.34;4968580;28;20034;-77
2022/11/26 04:52:55;;;;;;;107.28;15.77;;;;;;;5.16;100.00;102088.31;4963157;28;20057;-78
2022/11/26 04:55:20;;;;;;;76.70;15.77;;;;;;;5.20;100.00;102093.34;4968373;28;20086;-76
2022/11/26 04:57:49;;;;;;;177.03;21.17;;;;;;;5.20;100.00;102100.44;4981481;28;20102;-77
2022/11/26 05:00:16;;;;;;;121.47;19.15;;;;;;;5.22;100.00;102106.47;4970340;28;20093;-77
2022/11/26 05:02:42;;;;;;;132.48;19.73;;;;;;;5.19;100.00;102107.50;4966039;28;20035;-77
2022/11/26 05:05:07;;;;;;;111.57;19.30;;;;;;;5.17;100.00;102093.50;4970794;28;20049;-76
2022/11/26 05:07:33;;;;;;;192.02;23.45;;;;;;;5.20;100.00;102106.56;4980047;28;20500;-76
2022/11/26 05:09:59;;;;;;;92.78;18.27;;;;;;;5.20;100.00;102108.38;4970443;28;20122;-77
2022/11/26 05:12:24;;;;;;;200.77;19.65;;;;;;;5.22;100.00;102123.22;4970117;28;20388;-78
2022/11/26 05:14:50;;;;;;;141.32;20.60;;;;;;;5.28;100.00;102124.63;4967277;28;20070;-76
2022/11/26 05:17:15;;;;;;;78.33;17.30;;;;;;;5.31;100.00;102127.09;4959748;28;20037;-76
2022/11/26 05:19:40;;;;;;;74.83;16.87;;;;;;;5.32;100.00;102134.09;4964042;28;20536;-77
2022/11/26 05:22:06;;;;;;;83.20;18.77;;;;;;;5.28;100.00;102132.56;4970948;28;20285;-78
2022/11/26 05:24:31;;;;;;;104.53;20.40;;;;;;;5.30;100.00;102136.00;4972536;28;20039;-77
2022/11/26 05:26:56;;;;;;;158.67;26.50;;;;;;;5.29;100.00;102137.78;4971844;28;20045;-78
2022/11/26 05:29:22;;;;;;;95.33;22.53;;;;;;;5.33;100.00;102154.31;4974452;28;20516;-77
2022/11/26 05:31:47;;;;;;;98.90;24.97;;;;;;;5.36;100.00;102137.41;4973453;28;20031;-77
2022/11/26 05:34:13;;;;;;;158.07;28.00;;;;;;;5.37;100.00;102149.72;4962041;28;20053;-77
2022/11/26 05:36:38;;;;;;;109.50;24.57;;;;;;;5.41;100.00;102156.53;4971266;28;20116;-77
2022/11/26 05:39:03;;;;;;;55.90;20.03;;;;;;;5.30;100.00;102141.28;4975222;28;20034;-77
2022/11/26 05:41:29;;;;;;;121.33;25.53;;;;;;;5.28;100.00;102148.47;4973561;28;20059;-77
2022/11/26 05:43:54;;;;;;;100.63;22.97;;;;;;;5.29;100.00;102152.81;4969782;28;20123;-78
2022/11/26 05:46:19;;;;;;;103.53;22.70;;;;;;;5.31;100.00;102158.88;4973631;28;20045;-78
2022/11/26 05:48:45;;;;;;;132.77;26.43;;;;;;;5.30;100.00;102159.81;4970128;28;20752;-77
2022/11/26 05:51:10;;;;;;;99.87;25.80;;;;;;;5.23;100.00;102159.34;4971894;28;20301;-76
2022/11/26 05:53:36;;;;;;;64.90;22.53;;;;;;;5.29;100.00;102171.34;4965577;28;20030;-78
2022/11/26 05:56:02;;;;;;;89.65;24.42;;;;;;;5.27;100.00;102162.66;4974481;28;20035;-77
2022/11/26 05:58:27;;;;;;;96.23;28.23;;;;;;;5.28;100.00;102169.66;4985300;28;20119;-77
2022/11/26 06:00:53;;;;;;;88.63;25.23;;;;;;;5.25;100.00;102175.16;4985941;28;20038;-77
2022/11/26 06:03:18;;;;;;;101.63;26.27;;;;;;;5.27;100.00;102178.56;4973703;28;20035;-76
2022/11/26 06:05:44;;;;;;;70.63;26.80;;;;;;;5.24;100.00;102182.25;4973180;28;20122;-77
2022/11/26 06:08:09;;;;;;;188.13;33.92;;;;;;;5.22;100.00;102185.91;4977325;28;20030;-77
2022/11/26 06:10:35;;;;;;;62.45;23.17;;;;;;;5.28;100.00;102180.25;4964210;28;20659;-78
2022/11/26 06:13:00;;;;;;;143.17;32.10;;;;;;;5.20;100.00;102178.06;4975335;28;20073;-78
2022/11/26 06:15:25;;;;;;;164.93;32.50;;;;;;;5.07;100.00;102183.22;4976798;28;20101;-78
2022/11/26 06:17:50;;;;;;;120.80;29.77;;;;;;;5.06;100.00;102172.75;4991404;28;20129;-78
2022/11/26 06:20:16;;;;;;;83.93;27.33;;;;;;;5.11;100.00;102186.56;4991930;28;20039;-78
2022/11/26 06:22:43;;;;;;;74.57;26.00;;;;;;;5.15;100.00;102193.38;4974660;28;20035;-78
2022/11/26 06:25:12;;;;;;;257.23;42.38;;;;;;;5.12;100.00;102196.19;4974058;28;20035;-76
2022/11/26 06:27:37;;;;;;;112.00;30.55;;;;;;;5.07;100.00;102191.19;4972675;28;20035;-77
2022/11/26 06:30:04;;;;;;;202.10;34.90;;;;;;;5.17;100.00;102203.88;4975206;28;20094;-76
2022/11/26 06:32:30;;;;;;;111.32;29.55;;;;;;;5.20;100.00;102207.19;4974461;28;20342;-78
2022/11/26 06:34:56;;;;;;;;;;;;;;;5.15;100.00;102201.31;4966804;28;20043;-78
2022/11/26 06:37:22;;;;;;;91.53;26.02;;;;;;;5.11;100.00;102201.59;4974162;28;19909;-78
2022/11/26 06:39:47;;;;;;;71.18;27.42;;;;;;;5.11;100.00;102194.50;4974352;28;20174;-77
2022/11/26 06:42:12;;;;;;;77.60;26.20;;;;;;;5.02;100.00;102192.41;4974385;28;20039;-77
2022/11/26 06:44:38;;;;;;;171.73;34.70;;;;;;;5.10;100.00;102208.66;4975023;28;20039;-76
2022/11/26 06:47:03;;;;;;;139.87;33.00;;;;;;;5.00;100.00;102200.41;4976151;28;20150;-76
2022/11/26 06:49:28;;;;;;;205.97;36.53;;;;;;;5.10;100.00;102207.81;4973299;28;20345;-78
2022/11/26 06:51:54;;;;;;;108.50;24.50;;;;;;;5.10;100.00;102229.84;4978396;23;20126;-85
2022/11/26 06:54:19;;;;;;;104.30;29.03;;;;;;;5.10;100.00;102235.13;4963294;28;20053;-85
2022/11/26 06:56:45;;;;;;;82.97;27.92;;;;;;;5.07;100.00;102236.19;4954575;28;20089;-85
2022/11/26 06:59:11;;;;;;;80.07;26.83;;;;;;;5.07;100.00;102233.53;4954987;28;20074;-85
2022/11/26 07:01:36;;;;;;;103.60;31.13;;;;;;;5.14;100.00;102241.13;4954373;28;20110;-85
2022/11/26 07:04:02;;;;;;;89.88;26.30;;;;;;;5.00;100.00;102244.56;4986919;28;20046;-85
2022/11/26 07:06:29;;;;;;;84.43;26.30;;;;;;;5.06;100.00;102245.06;4954559;28;20045;-86
2022/11/26 07:09:32;;;;;;;86.40;27.17;;;;;;;5.02;100.00;102245.34;4970605;28;20491;-84
2022/11/26 07:11:57;;;;;;;113.25;31.85;;;;;;;4.98;100.00;102241.16;4953928;28;20906;-89
2022/11/26 07:14:23;;;;;;;192.27;37.43;;;;;;;4.93;100.00;102244.06;4971143;28;20043;-87
2022/11/26 07:16:48;;;;;;;146.77;33.77;;;;;;;4.85;100.00;102235.75;4970645;28;20031;-84
2022/11/26 07:19:13;;;;;;;79.27;28.20;;;;;;;4.93;100.00;102244.06;4954591;28;20286;-84
2022/11/26 07:21:39;;;;;;;75.43;27.17;;;;;;;4.92;100.00;102255.63;4968775;28;20483;-84
2022/11/26 07:24:05;;;;;;;146.57;28.97;;;;;;;4.86;100.00;102248.03;4951384;28;20043;-84
2022/11/26 07:26:30;;;;;;;108.47;30.70;;;;;;;4.84;100.00;102252.56;4956178;28;20281;-85
2022/11/26 07:28:55;;;;;;;81.03;26.47;;;;;;;4.87;100.00;102260.34;4962498;28;20085;-84
2022/11/26 07:31:21;;;;;;;148.90;31.73;;;;;;;4.74;100.00;102243.44;4974006;28;20098;-84
2022/11/26 07:33:47;;;;;;;95.15;29.25;;;;;;;4.79;100.00;102258.09;4970281;28;20522;-83
2022/11/26 07:36:19;;;;;;;97.72;29.52;;;;;;;4.83;100.00;102272.03;4970508;28;20519;-86
2022/11/26 07:38:45;;;;;;;84.72;27.17;;;;;;;4.77;100.00;102264.44;4960565;28;20043;-84
2022/11/26 07:41:12;;;;;;;89.13;27.65;;;;;;;4.72;100.00;102255.91;4950721;28;20086;-84
2022/11/26 07:43:39;;;;;;;69.85;25.27;;;;;;;4.76;100.00;102268.03;4951204;28;20122;-85
2022/11/26 07:46:07;;;;;;;76.43;24.73;;;;;;;4.74;100.00;102268.09;4950594;28;20070;-84
2022/11/26 07:48:33;;;;;;;67.05;23.67;;;;;;;4.73;100.00;102268.19;4950579;28;20122;-85
2022/11/26 07:50:59;;;;;;;;;;;;;;;4.72;100.00;102271.78;4955148;28;20049;-84
2022/11/26 07:53:28;;;;;;;64.78;24.10;;;;;;;4.67;100.00;102272.03;4954494;28;19910;-85
2022/11/26 07:55:54;;;;;;;66.10;25.45;;;;;;;4.64;100.00;102264.28;4953561;28;20078;-86
2022/11/26 07:58:19;;;;;;;63.03;24.53;;;;;;;4.48;100.00;102261.66;4954178;28;20055;-86
2022/11/26 08:00:45;;;;;;;56.28;24.25;;;;;;;4.60;100.00;102274.19;4955391;28;20050;-86
2022/11/26 08:03:10;;;;;;;54.22;23.58;;;;;;;4.72;100.00;102279.72;4971263;28;20117;-86
2022/11/26 08:05:40;;;;;;;60.80;26.30;;;;;;;4.68;100.00;102275.53;4954980;28;20042;-85
2022/11/26 08:08:06;;;;;;;58.55;24.13;;;;;;;4.79;100.00;102289.00;4970621;28;20118;-86
2022/11/26 08:10:31;;;;;;;63.23;24.70;;;;;;;4.92;100.00;102291.81;4954404;28;20464;-87
2022/11/26 08:12:56;;;;;;;69.40;26.73;;;;;;;4.87;100.00;102294.75;4953382;28;21142;-86
2022/11/26 08:15:22;;;;;;;70.73;25.63;;;;;;;4.91;100.00;102298.88;4955419;28;20069;-85
2022/11/26 08:17:47;;;;;;;60.20;23.97;;;;;;;4.99;100.00;102309.91;4955058;28;20055;-85
2022/11/26 08:20:13;;;;;;;50.00;22.30;;;;;;;4.85;100.00;102288.69;4954958;28;20483;-88
2022/11/26 08:22:38;;;;;;;66.43;26.67;;;;;;;4.98;100.00;102304.69;4954113;28;20081;-87
2022/11/26 08:25:04;;;;;;;60.97;24.37;;;;;;;4.95;100.00;102295.13;4971206;28;20126;-86
2022/11/26 08:27:31;;;;;;;55.80;24.42;;;;;;;4.95;100.00;102303.06;4956061;28;20519;-86
2022/11/26 08:29:57;;;;;;;90.18;24.10;;;;;;;4.90;100.00;102299.00;4955198;28;20503;-87
2022/11/26 08:32:22;;;;;;;61.67;23.80;;;;;;;5.01;100.00;102307.16;4952981;28;20035;-84
2022/11/26 08:34:47;;;;;;;75.87;25.43;;;;;;;5.02;100.00;102300.94;4970306;28;20089;-84
2022/11/26 08:37:13;;;;;;;58.63;24.27;;;;;;;5.03;100.00;102302.63;4957970;28;20054;-86
2022/11/26 08:39:38;;;;;;;70.93;24.17;;;;;;;5.06;100.00;102305.97;4973205;28;20043;-86
2022/11/26 08:42:13;;;;;;;69.20;24.30;;;;;;;5.16;100.00;102308.09;4952996;28;20482;-85
2022/11/26 08:44:38;;;;;;;68.25;23.88;;;;;;;5.14;100.00;102309.97;4968358;28;20050;-85
2022/11/26 08:47:03;;;;;;;77.20;26.67;;;;;;;5.10;100.00;102309.28;4958229;28;20039;-86
2022/11/26 08:49:29;;;;;;;73.43;26.03;;;;;;;5.33;100.00;102315.03;4979699;28;20133;-84
2022/11/26 08:51:55;;;;;;;71.30;27.30;;;;;;;5.29;100.00;102304.63;4950465;28;20042;-84
2022/11/26 08:54:21;;;;;;;68.13;25.15;;;;;;;5.19;100.00;102292.00;4951807;28;20024;-83
2022/11/26 08:56:46;;;;;;;67.05;26.15;;;;;;;5.25;100.00;102304.91;4953687;28;20081;-84
2022/11/26 08:59:11;;;;;;;57.67;23.30;;;;;;;5.33;100.00;102309.72;4958913;28;20031;-86
2022/11/26 09:01:37;;;;;;;73.97;26.43;;;;;;;5.69;100.00;102333.22;4977774;28;20034;-85
2022/11/26 09:04:03;;;;;;;51.73;23.40;;;;;;;5.84;100.00;102340.22;4974542;28;20031;-85
2022/11/26 09:06:30;;;;;;;62.20;24.58;;;;;;;5.83;100.00;102338.53;4950536;28;20133;-86
2022/11/26 09:09:16;;;;;;;78.70;26.80;;;;;;;5.90;100.00;102349.63;4961451;28;20031;-84
2022/11/26 09:11:56;;;;;;;70.95;25.67;;;;;;;5.76;100.00;102354.88;4955055;28;20089;-85
2022/11/26 09:14:29;;;;;;;61.40;23.50;;;;;;;5.61;100.00;102331.00;4959134;28;20039;-84
2022/11/26 09:16:56;;;;;;;53.83;20.52;;;;;;;5.41;100.00;102310.16;4961400;28;20031;-86
2022/11/26 09:19:23;;;;;;;41.25;20.55;;;;;;;5.50;100.00;102313.09;4975108;28;20038;-84
2022/11/26 09:22:06;;;;;;;69.97;24.98;;;;;;;5.55;100.00;102325.19;4956707;28;20027;-87
2022/11/26 09:24:32;;;;;;;47.28;20.13;;;;;;;5.54;100.00;102315.56;4956217;28;20039;-85
2022/11/26 09:26:57;;;;;;;43.13;17.90;;;;;;;5.55;100.00;102322.56;4974987;28;20042;-86
2022/11/26 09:29:23;;;;;;;36.83;15.93;;;;;;;5.39;100.00;102299.63;4970255;28;20727;-86
2022/11/26 09:31:50;;;;;;;40.42;17.15;;;;;;;5.44;100.00;102305.50;4970753;28;20035;-86
2022/11/26 09:34:16;;;;;;;42.72;17.30;;;;;;;5.57;100.00;102308.31;4960386;28;20034;-86
2022/11/26 09:36:41;;;;;;;35.50;15.82;;;;;;;5.53;100.00;102304.13;4947915;28;20035;-85
2022/11/26 09:39:07;;;;;;;49.97;18.83;;;;;;;5.65;100.00;102302.53;4963538;28;20037;-85
2022/11/26 09:41:41;;;;;;;61.58;20.17;;;;;;;5.69;100.00;102304.91;4959384;28;20484;-86
2022/11/26 09:44:54;;;;;;;43.90;16.85;;;;;;;5.64;100.00;102291.09;4973288;28;20557;-86
2022/11/26 09:47:24;;;;;;;39.20;15.90;;;;;;;5.87;100.00;102310.88;4950092;29;20743;-85
2022/11/26 09:50:07;;;;;;;42.78;16.38;;;;;;;6.13;100.00;102317.28;4936267;29;20407;-85
2022/11/26 09:52:53;;;;;;;45.22;17.25;;;;;;;6.22;100.00;102320.28;4961227;28;20062;-84
2022/11/26 09:55:21;;;;;;;48.10;17.80;;;;;;;6.54;100.00;102323.56;4956482;28;20558;-84
2022/11/26 09:58:15;;;;;;;43.63;17.33;;;;;;;6.43;100.00;102312.78;4956340;28;20026;-84
2022/11/26 10:00:46;;;;;;;50.80;17.85;;;;;;;6.13;100.00;102284.56;4955477;28;20043;-85
2022/11/26 10:03:15;;;;;;;44.22;15.82;;;;;;;6.09;100.00;102283.09;4979637;28;20441;-85
2022/11/26 10:05:49;;;;;;;40.65;18.23;;;;;;;6.31;100.00;102288.72;4961348;28;20027;-86
2022/11/26 10:08:27;;;;;;;33.97;16.80;;;;;;;6.34;100.00;102267.34;4953629;28;20039;-85
2022/11/26 10:10:59;;;;;;;40.17;16.95;;;;;;;6.33;100.00;102260.31;4964323;28;20023;-85
2022/11/26 10:13:41;;;;;;;40.63;17.05;;;;;;;6.25;100.00;102248.47;4964530;28;20034;-85
2022/11/26 10:16:30;;;;;;;41.88;16.42;;;;;;;6.25;100.00;102252.00;4972616;28;20077;-85
2022/11/26 10:19:24;;;;;;;53.33;19.13;;;;;;;6.20;100.00;102246.09;4956311;28;20041;-86
2022/11/26 10:21:57;;;;;;;44.63;17.10;;;;;;;6.15;100.00;102237.59;4951393;28;20050;-85
2022/11/26 10:24:29;;;;;;;37.53;16.67;;;;;;;6.17;100.00;102227.75;4975312;28;20065;-85
2022/11/26 10:26:56;;;;;;;43.17;15.88;;;;;;;6.16;100.00;102234.00;4954074;28;20031;-85
2022/11/26 10:29:24;;;;;;;47.35;18.23;;;;;;;6.14;100.00;102227.97;4960655;28;20023;-85
2022/11/26 10:31:56;;;;;;;56.72;18.95;;;;;;;6.21;100.00;102223.13;4956208;28;20093;-86
2022/11/26 10:34:41;;;;;;;45.17;17.33;;;;;;;6.07;100.00;102210.72;4956066;28;20053;-85
2022/11/26 10:37:07;;;;;;;41.67;17.05;;;;;;;6.14;100.00;102212.03;4971870;28;20046;-85
2022/11/26 10:39:32;;;;;;;48.95;18.23;;;;;;;6.15;100.00;102203.13;4972193;28;20047;-86
2022/11/26 10:42:03;;;;;;;41.63;19.17;;;;;;;6.22;100.00;102204.44;4956168;28;20034;-86
2022/11/26 10:44:40;;;;;;;64.65;18.23;;;;;;;6.18;100.00;102197.66;4961477;28;20553;-86
2022/11/26 10:47:27;;;;;;;68.03;20.52;;;;;;;6.11;100.00;102191.00;4956312;28;20118;-85
2022/11/26 10:50:12;;;;;;;43.88;16.42;;;;;;;6.07;100.00;102194.81;4971724;28;20521;-85
2022/11/26 10:52:38;;;;;;;47.45;19.30;;;;;;;6.04;100.00;102192.34;4987288;28;20035;-86
2022/11/26 10:55:22;;;;;;;;;;;;;;;6.07;100.00;102184.22;4943195;28;20504;-85
2022/11/26 10:57:54;;;;;;;60.05;19.48;;;;;;;6.16;100.00;102188.06;4978257;28;19918;-86
2022/11/26 11:00:39;;;;;;;54.42;20.95;;;;;;;6.19;100.00;102199.34;4955108;28;20514;-86
2022/11/26 11:03:14;;;;;;;54.35;19.08;;;;;;;6.15;100.00;102187.22;4954855;28;20035;-85
2022/11/26 11:05:42;;;;;;;80.30;23.08;;;;;;;6.34;100.00;102201.00;4971875;28;20070;-85
2022/11/26 11:08:28;;;;;;;65.28;22.02;;;;;;;6.25;100.00;102198.06;4970937;28;20026;-85
2022/11/26 11:11:00;;;;;;;49.47;20.30;;;;;;;6.18;100.00;102180.84;4954368;28;20138;-85
2022/11/26 11:13:43;;;;;;;49.85;18.20;;;;;;;6.07;100.00;102181.56;4970125;28;20094;-85
2022/11/26 11:16:11;;;;;;;46.97;18.65;;;;;;;6.10;100.00;102184.00;4951222;28;20043;-85